createdAt,value
2016-11-09T00:00:38.887Z,28.62
2016-11-09T00:01:39.135Z,28.62
2016-11-09T00:02:38.769Z,28.42
2016-11-09T00:03:38.706Z,28.42
2016-11-09T00:04:38.648Z,28.42
2016-11-09T00:05:38.579Z,28.42
2016-11-09T00:06:38.516Z,28.52
2016-11-09T00:07:38.455Z,28.62
2016-11-09T00:08:38.396Z,28.42
2016-11-09T00:09:38.331Z,28.42
2016-11-09T00:10:38.269Z,28.52
2016-11-09T00:11:38.214Z,28.52
2016-11-09T00:12:38.155Z,28.52
2016-11-09T00:13:38.085Z,28.52
2016-11-09T00:14:38.029Z,28.52
2016-11-09T00:15:37.962Z,28.52
2016-11-09T00:16:38.206Z,28.52
2016-11-09T00:17:37.838Z,28.52
2016-11-09T00:18:37.780Z,28.52
2016-11-09T00:19:37.717Z,28.72
2016-11-09T00:20:37.654Z,28.52
2016-11-09T00:21:37.592Z,28.52
2016-11-09T00:22:37.534Z,28.52
2016-11-09T00:23:37.777Z,28.42
2016-11-09T00:24:37.408Z,28.42
2016-11-09T00:25:37.345Z,28.42
2016-11-09T00:26:37.284Z,28.42
2016-11-09T00:27:37.221Z,28.42
2016-11-09T00:28:37.361Z,28.52
2016-11-09T00:29:37.100Z,28.42
2016-11-09T00:30:37.041Z,28.42
2016-11-09T00:31:36.973Z,28.52
2016-11-09T00:32:36.912Z,28.42
2016-11-09T00:33:36.852Z,28.52
2016-11-09T00:34:36.791Z,28.42
2016-11-09T00:35:36.728Z,28.42
2016-11-09T00:36:36.666Z,28.44
2016-11-09T00:37:36.603Z,28.52
2016-11-09T00:38:36.545Z,28.42
2016-11-09T00:39:36.479Z,28.52
2016-11-09T00:40:36.421Z,28.42
2016-11-09T00:41:36.359Z,28.42
2016-11-09T00:42:36.298Z,28.42
2016-11-09T00:43:36.238Z,28.42
2016-11-09T00:44:36.188Z,28.42
2016-11-09T00:45:36.145Z,28.42
2016-11-09T00:46:36.049Z,28.52
2016-11-09T00:47:36.107Z,28.52
2016-11-09T00:48:35.927Z,28.42
2016-11-09T00:49:35.870Z,28.52
2016-11-09T00:50:35.806Z,28.42
2016-11-09T00:51:35.739Z,28.33
2016-11-09T00:52:35.986Z,28.33
2016-11-09T00:53:35.614Z,28.33
2016-11-09T00:54:35.757Z,28.52
2016-11-09T00:55:35.494Z,28.33
2016-11-09T00:56:35.432Z,28.33
2016-11-09T00:57:35.369Z,28.23
2016-11-09T00:58:35.307Z,28.33
2016-11-09T00:59:35.247Z,28.23
2016-11-09T01:00:35.187Z,28.33
2016-11-09T01:01:35.135Z,28.33
2016-11-09T01:02:35.064Z,28.42
2016-11-09T01:03:35.003Z,28.33
2016-11-09T01:04:34.942Z,28.33
2016-11-09T01:05:34.875Z,28.33
2016-11-09T01:06:34.813Z,28.23
2016-11-09T01:07:35.057Z,28.33
2016-11-09T01:08:34.689Z,28.14
2016-11-09T01:09:34.942Z,28.42
2016-11-09T01:10:34.568Z,28.33
2016-11-09T01:11:34.511Z,28.33
2016-11-09T01:12:34.446Z,28.33
2016-11-09T01:13:34.388Z,28.33
2016-11-09T01:14:34.322Z,28.33
2016-11-09T01:15:34.258Z,28.33
2016-11-09T01:16:34.199Z,28.33
2016-11-09T01:17:34.139Z,28.33
2016-11-09T01:18:34.075Z,28.33
2016-11-09T01:19:34.014Z,28.62
2016-11-09T01:20:33.948Z,28.33
2016-11-09T01:21:33.922Z,28.33
2016-11-09T01:22:33.827Z,28.42
2016-11-09T01:23:33.766Z,28.33
2016-11-09T01:24:33.704Z,28.23
2016-11-09T01:25:33.640Z,28.23
2016-11-09T01:26:33.590Z,28.33
2016-11-09T01:27:33.520Z,28.42
2016-11-09T01:28:33.453Z,28.33
2016-11-09T01:29:33.395Z,28.33
2016-11-09T01:30:33.332Z,28.42
2016-11-09T01:31:33.272Z,28.33
2016-11-09T01:32:33.208Z,28.42
2016-11-09T01:33:33.150Z,28.33
2016-11-09T01:34:33.087Z,28.33
2016-11-09T01:35:33.024Z,28.33
2016-11-09T01:36:33.266Z,28.42
2016-11-09T01:37:32.900Z,28.33
2016-11-09T01:38:32.844Z,28.23
2016-11-09T01:39:32.777Z,28.33
2016-11-09T01:40:32.716Z,28.33
2016-11-09T01:41:32.650Z,28.33
2016-11-09T01:42:32.590Z,28.33
2016-11-09T01:43:32.530Z,28.33
2016-11-09T01:44:32.467Z,28.33
2016-11-09T01:45:32.405Z,28.33
2016-11-09T01:46:32.343Z,28.23
2016-11-09T01:47:32.283Z,28.62
2016-11-09T01:48:32.223Z,28.33
2016-11-09T01:49:32.465Z,28.33
2016-11-09T01:50:32.097Z,28.33
2016-11-09T01:51:32.034Z,28.52
2016-11-09T01:52:31.975Z,28.23
2016-11-09T01:53:31.913Z,28.33
2016-11-09T01:54:31.852Z,28.25
2016-11-09T01:55:31.789Z,28.33
2016-11-09T01:56:31.727Z,28.42
2016-11-09T01:57:31.667Z,28.23
2016-11-09T01:58:31.605Z,28.81
2016-11-09T01:59:31.545Z,28.42
2016-11-09T02:00:31.481Z,28.33
2016-11-09T02:01:31.420Z,28.52
2016-11-09T02:02:31.358Z,28.33
2016-11-09T02:03:31.298Z,28.33
2016-11-09T02:04:31.237Z,28.62
2016-11-09T02:05:31.174Z,28.42
2016-11-09T02:06:31.109Z,28.62
2016-11-09T02:07:31.056Z,28.91
2016-11-09T02:08:30.984Z,28.23
2016-11-09T02:09:30.926Z,28.62
2016-11-09T02:10:30.860Z,28.62
2016-11-09T02:11:30.833Z,28.33
2016-11-09T02:12:30.739Z,28.72
2016-11-09T02:13:30.977Z,28.42
2016-11-09T02:14:30.614Z,28.62
2016-11-09T02:15:30.552Z,28.81
2016-11-09T02:16:30.805Z,28.81
2016-11-09T02:17:30.432Z,28.33
2016-11-09T02:18:30.367Z,28.23
2016-11-09T02:19:30.424Z,28.33
2016-11-09T02:20:30.245Z,28.81
2016-11-09T02:21:30.189Z,28.33
2016-11-09T02:22:30.427Z,28.62
2016-11-09T02:23:30.060Z,28.33
2016-11-09T02:24:29.998Z,28.62
2016-11-09T02:25:29.934Z,28.72
2016-11-09T02:26:29.877Z,28.81
2016-11-09T02:27:29.817Z,28.62
2016-11-09T02:28:29.756Z,28.81
2016-11-09T02:29:29.694Z,28.62
2016-11-09T02:30:29.640Z,28.91
2016-11-09T02:31:29.568Z,28.72
2016-11-09T02:32:29.506Z,28.23
2016-11-09T02:33:29.445Z,28.33
2016-11-09T02:34:29.382Z,28.62
2016-11-09T02:35:29.322Z,28.81
2016-11-09T02:36:29.256Z,28.42
2016-11-09T02:37:29.195Z,28.72
2016-11-09T02:38:29.158Z,28.33
2016-11-09T02:39:29.071Z,28.72
2016-11-09T02:40:29.013Z,28.62
2016-11-09T02:41:28.948Z,28.52
2016-11-09T02:42:28.888Z,28.42
2016-11-09T02:43:28.831Z,28.52
2016-11-09T02:44:28.762Z,28.33
2016-11-09T02:45:28.702Z,28.42
2016-11-09T02:46:28.638Z,28.62
2016-11-09T02:47:28.579Z,28.53
2016-11-09T02:48:28.514Z,28.52
2016-11-09T02:49:28.455Z,28.33
2016-11-09T02:50:28.390Z,28.33
2016-11-09T02:51:28.335Z,28.72
2016-11-09T02:52:28.298Z,28.33
2016-11-09T02:53:28.209Z,28.33
2016-11-09T02:54:28.143Z,28.72
2016-11-09T02:55:28.083Z,28.52
2016-11-09T02:56:28.024Z,28.52
2016-11-09T02:57:27.959Z,28.33
2016-11-09T02:58:27.906Z,28.72
2016-11-09T02:59:27.836Z,28.33
2016-11-09T03:00:27.773Z,28.33
2016-11-09T03:01:27.715Z,28.91
2016-11-09T03:02:27.650Z,28.62
2016-11-09T03:03:27.586Z,28.33
2016-11-09T03:04:27.529Z,28.63
2016-11-09T03:05:27.463Z,28.72
2016-11-09T03:06:27.402Z,28.72
2016-11-09T03:07:27.341Z,28.42
2016-11-09T03:08:27.281Z,28.72
2016-11-09T03:09:27.216Z,28.62
2016-11-09T03:10:27.156Z,28.52
2016-11-09T03:11:27.095Z,28.52
2016-11-09T03:12:27.031Z,28.62
2016-11-09T03:13:26.972Z,28.34
2016-11-09T03:14:26.911Z,28.33
2016-11-09T03:15:26.848Z,28.91
2016-11-09T03:16:26.785Z,28.72
2016-11-09T03:17:26.724Z,28.33
2016-11-09T03:18:26.661Z,28.72
2016-11-09T03:19:26.601Z,28.23
2016-11-09T03:20:26.535Z,28.72
2016-11-09T03:21:26.477Z,28.52
2016-11-09T03:22:26.418Z,28.72
2016-11-09T03:23:26.354Z,28.62
2016-11-09T03:24:26.289Z,28.33
2016-11-09T03:25:26.227Z,28.33
2016-11-09T03:26:26.168Z,28.52
2016-11-09T03:27:26.108Z,28.33
2016-11-09T03:28:26.044Z,28.62
2016-11-09T03:29:25.983Z,28.72
2016-11-09T03:30:25.925Z,28.33
2016-11-09T03:31:25.857Z,28.72
2016-11-09T03:32:25.798Z,28.52
2016-11-09T03:33:25.735Z,28.62
2016-11-09T03:34:25.672Z,28.72
2016-11-09T03:35:25.613Z,28.72
2016-11-09T03:36:25.551Z,28.52
2016-11-09T03:37:25.487Z,28.42
2016-11-09T03:38:25.425Z,28.72
2016-11-09T03:39:25.365Z,28.42
2016-11-09T03:40:25.304Z,28.23
2016-11-09T03:41:25.244Z,28.33
2016-11-09T03:42:25.182Z,28.62
2016-11-09T03:43:25.224Z,28.33
2016-11-09T03:44:25.056Z,28.62
2016-11-09T03:45:24.992Z,28.62
2016-11-09T03:46:24.936Z,28.33
2016-11-09T03:47:24.904Z,28.23
2016-11-09T03:48:24.806Z,28.81
2016-11-09T03:49:24.747Z,28.81
2016-11-09T03:50:24.685Z,28.72
2016-11-09T03:51:24.624Z,28.72
2016-11-09T03:52:24.562Z,28.42
2016-11-09T03:53:24.501Z,28.72
2016-11-09T03:54:24.439Z,28.73
2016-11-09T03:55:24.688Z,28.33
2016-11-09T03:56:24.315Z,28.81
2016-11-09T03:57:24.255Z,28.23
2016-11-09T03:58:24.196Z,28.62
2016-11-09T03:59:24.127Z,28.72
2016-11-09T04:00:24.066Z,28.72
2016-11-09T04:01:24.008Z,28.42
2016-11-09T04:02:23.946Z,28.44
2016-11-09T04:03:23.883Z,28.62
2016-11-09T04:04:23.829Z,28.72
2016-11-09T04:05:23.768Z,28.72
2016-11-09T04:06:23.695Z,28.25
2016-11-09T04:07:23.633Z,28.33
2016-11-09T04:08:23.572Z,28.81
2016-11-09T04:09:23.556Z,28.33
2016-11-09T04:10:23.447Z,28.44
2016-11-09T04:11:23.386Z,28.72
2016-11-09T04:12:23.328Z,28.72
2016-11-09T04:13:23.269Z,28.23
2016-11-09T04:14:23.203Z,28.33
2016-11-09T04:16:23.078Z,28.72
2016-11-09T04:17:23.018Z,28.72
2016-11-09T04:18:22.953Z,28.62
2016-11-09T04:19:22.893Z,28.53
2016-11-09T04:20:22.832Z,28.33
2016-11-09T04:21:22.776Z,28.81
2016-11-09T04:22:23.013Z,28.34
2016-11-09T04:23:22.648Z,28.33
2016-11-09T04:24:22.584Z,28.72
2016-11-09T04:25:22.524Z,28.73
2016-11-09T04:26:22.461Z,28.72
2016-11-09T04:27:22.398Z,28.72
2016-11-09T04:28:22.370Z,28.33
2016-11-09T04:29:22.276Z,28.33
2016-11-09T04:30:22.212Z,28.62
2016-11-09T04:31:22.153Z,28.72
2016-11-09T04:32:22.088Z,28.81
2016-11-09T04:33:22.032Z,28.81
2016-11-09T04:34:21.967Z,28.62
2016-11-09T04:35:21.915Z,28.42
2016-11-09T04:36:21.846Z,28.25
2016-11-09T04:37:21.784Z,28.52
2016-11-09T04:38:21.721Z,28.33
2016-11-09T04:39:21.658Z,28.33
2016-11-09T04:40:21.599Z,28.33
2016-11-09T04:41:21.537Z,28.33
2016-11-09T04:42:21.586Z,28.33
2016-11-09T04:43:21.410Z,28.33
2016-11-09T04:44:21.347Z,28.23
2016-11-09T04:45:21.292Z,28.33
2016-11-09T04:46:21.227Z,28.42
2016-11-09T04:47:21.164Z,28.42
2016-11-09T04:48:21.117Z,28.33
2016-11-09T04:49:21.041Z,28.33
2016-11-09T04:50:20.981Z,28.23
2016-11-09T04:51:20.917Z,28.33
2016-11-09T04:52:21.180Z,28.42
2016-11-09T04:53:20.797Z,28.33
2016-11-09T04:54:20.733Z,28.33
2016-11-09T04:55:20.671Z,28.33
2016-11-09T04:56:20.605Z,28.42
2016-11-09T04:57:20.544Z,28.42
2016-11-09T04:58:20.481Z,28.33
2016-11-09T04:59:20.419Z,28.42
2016-11-09T05:00:20.671Z,28.42
2016-11-09T05:01:20.307Z,28.42
2016-11-09T05:02:20.236Z,28.33
2016-11-09T05:03:20.179Z,28.42
2016-11-09T05:04:20.115Z,28.42
2016-11-09T05:05:20.052Z,28.52
2016-11-09T05:06:19.988Z,28.42
2016-11-09T05:07:19.930Z,28.42
2016-11-09T05:08:19.869Z,28.42
2016-11-09T05:09:19.805Z,28.33
2016-11-09T05:10:19.744Z,28.42
2016-11-09T05:11:19.683Z,28.14
2016-11-09T05:12:19.624Z,28.52
2016-11-09T05:13:19.562Z,28.33
2016-11-09T05:14:19.499Z,28.52
2016-11-09T05:15:19.433Z,28.52
2016-11-09T05:16:19.370Z,27.56
2016-11-09T05:17:19.314Z,27.27
2016-11-09T05:18:19.248Z,26.89
2016-11-09T05:19:19.189Z,27.08
2016-11-09T05:20:19.123Z,27.08
2016-11-09T05:21:19.067Z,26.59
2016-11-09T05:22:19.001Z,26.59
2016-11-09T05:23:18.938Z,26.5
2016-11-09T05:24:18.876Z,26.59
2016-11-09T05:25:18.818Z,26.4
2016-11-09T05:26:18.757Z,26.59
2016-11-09T05:27:18.695Z,26.31
2016-11-09T05:28:18.630Z,26.11
2016-11-09T05:29:18.570Z,26.02
2016-11-09T05:30:18.506Z,26.11
2016-11-09T05:31:18.448Z,26.02
2016-11-09T05:32:18.387Z,25.92
2016-11-09T05:33:18.323Z,25.82
2016-11-09T05:34:18.263Z,25.82
2016-11-09T05:35:18.197Z,25.82
2016-11-09T05:36:18.136Z,25.92
2016-11-09T05:37:18.074Z,25.82
2016-11-09T05:38:18.009Z,25.71
2016-11-09T05:39:17.951Z,25.63
2016-11-09T05:40:18.189Z,25.43
2016-11-09T05:41:17.824Z,25.43
2016-11-09T05:42:17.765Z,25.52
2016-11-09T05:43:17.701Z,25.62
2016-11-09T05:44:17.643Z,25.34
2016-11-09T05:45:17.576Z,25.33
2016-11-09T05:46:17.519Z,25.23
2016-11-09T05:47:17.759Z,25.23
2016-11-09T05:48:17.399Z,25.13
2016-11-09T05:49:17.328Z,24.95
2016-11-09T05:50:17.269Z,24.95
2016-11-09T05:51:17.207Z,24.95
2016-11-09T05:52:17.146Z,25.04
2016-11-09T05:53:17.081Z,24.75
2016-11-09T05:54:17.019Z,24.66
2016-11-09T05:55:16.958Z,24.66
2016-11-09T05:56:16.896Z,24.85
2016-11-09T05:57:16.835Z,24.76
2016-11-09T05:58:17.076Z,24.75
2016-11-09T05:59:16.715Z,24.66
2016-11-09T06:00:16.771Z,24.27
2016-11-09T06:01:16.591Z,24.37
2016-11-09T06:02:16.527Z,24.56
2016-11-09T06:03:16.462Z,24.46
2016-11-09T06:04:16.815Z,24.46
2016-11-09T06:05:16.337Z,24.46
2016-11-09T06:06:16.277Z,24.37
2016-11-09T06:07:16.215Z,24.27
2016-11-09T06:08:16.153Z,24.08
2016-11-09T06:09:16.089Z,24.27
2016-11-09T06:10:16.030Z,24.18
2016-11-09T06:11:15.967Z,24.18
2016-11-09T06:12:15.903Z,24.18
2016-11-09T06:13:15.841Z,24.27
2016-11-09T06:14:15.780Z,24.27
2016-11-09T06:15:15.720Z,24.08
2016-11-09T06:16:15.657Z,24.08
2016-11-09T06:17:15.596Z,23.79
2016-11-09T06:18:15.534Z,23.88
2016-11-09T06:19:15.472Z,23.69
2016-11-09T06:20:15.409Z,23.69
2016-11-09T06:21:15.649Z,23.69
2016-11-09T06:22:15.287Z,23.69
2016-11-09T06:23:15.220Z,23.6
2016-11-09T06:24:15.368Z,23.79
2016-11-09T06:25:15.099Z,23.79
2016-11-09T06:26:15.039Z,23.88
2016-11-09T06:27:14.974Z,23.6
2016-11-09T06:28:14.911Z,23.79
2016-11-09T06:29:14.848Z,23.5
2016-11-09T06:30:14.799Z,23.5
2016-11-09T06:31:14.725Z,23.98
2016-11-09T06:32:14.667Z,23.5
2016-11-09T06:33:14.609Z,23.98
2016-11-09T06:34:14.553Z,23.69
2016-11-09T06:35:14.481Z,23.79
2016-11-09T06:36:14.417Z,23.6
2016-11-09T06:37:14.670Z,23.21
2016-11-09T06:38:14.295Z,23.5
2016-11-09T06:39:14.237Z,23.31
2016-11-09T06:40:14.167Z,23.5
2016-11-09T06:41:14.107Z,23.4
2016-11-09T06:42:14.076Z,23.31
2016-11-09T06:43:14.190Z,23.6
2016-11-09T06:44:13.927Z,23.5
2016-11-09T06:45:13.868Z,23.4
2016-11-09T06:46:13.795Z,23.5
2016-11-09T06:47:13.741Z,23.79
2016-11-09T06:48:13.687Z,23.11
2016-11-09T06:49:13.629Z,23.79
2016-11-09T06:50:13.547Z,23.6
2016-11-09T06:51:13.488Z,23.31
2016-11-09T06:52:13.422Z,23.31
2016-11-09T06:53:13.369Z,23.11
2016-11-09T06:54:13.306Z,23.11
2016-11-09T06:55:13.237Z,23.11
2016-11-09T06:56:13.177Z,23.21
2016-11-09T06:57:13.114Z,23.21
2016-11-09T06:58:14.251Z,23.21
2016-11-09T06:59:12.988Z,22.92
2016-11-09T07:00:12.926Z,23.11
2016-11-09T07:01:12.873Z,23.11
2016-11-09T07:02:12.804Z,23.21
2016-11-09T07:03:12.739Z,23.31
2016-11-09T07:04:12.678Z,23.21
2016-11-09T07:05:12.638Z,23.21
2016-11-09T07:06:12.563Z,23.31
2016-11-09T07:07:12.490Z,23.31
2016-11-09T07:08:12.456Z,23.21
2016-11-09T07:09:12.366Z,22.73
2016-11-09T07:10:12.308Z,23.4
2016-11-09T07:11:12.247Z,23.5
2016-11-09T07:12:12.188Z,23.4
2016-11-09T07:13:12.130Z,23.4
2016-11-09T07:14:12.055Z,22.83
2016-11-09T07:15:11.997Z,22.83
2016-11-09T07:16:12.141Z,22.83
2016-11-09T07:17:11.898Z,22.83
2016-11-09T07:18:11.808Z,22.83
2016-11-09T07:19:11.751Z,22.92
2016-11-09T07:20:11.997Z,22.92
2016-11-09T07:21:11.655Z,22.92
2016-11-09T07:22:11.571Z,23.02
2016-11-09T07:23:11.497Z,23.02
2016-11-09T07:24:11.445Z,23.02
2016-11-09T07:25:11.400Z,23
2016-11-09T07:26:11.311Z,22.91
2016-11-09T07:27:11.248Z,22.91
2016-11-09T07:28:11.204Z,23
2016-11-09T07:29:11.128Z,23
2016-11-09T07:30:11.064Z,23
2016-11-09T07:31:11.343Z,23.02
2016-11-09T07:32:10.948Z,22.81
2016-11-09T07:33:11.021Z,22.81
2016-11-09T07:34:10.917Z,22.81
2016-11-09T07:35:10.782Z,22.83
2016-11-09T07:36:10.735Z,22.72
2016-11-09T07:37:10.639Z,22.81
2016-11-09T07:38:10.592Z,22.81
2016-11-09T07:39:16.779Z,22.83
2016-11-09T07:40:10.567Z,23.21
2016-11-09T07:41:10.587Z,23.02
2016-11-09T07:42:10.450Z,23.21
2016-11-09T07:43:10.360Z,22.73
2016-11-09T07:44:10.327Z,22.92
2016-11-09T07:45:10.340Z,23.21
2016-11-09T07:46:10.272Z,23.21
2016-11-09T07:47:10.418Z,22.83
2016-11-09T07:48:10.092Z,22.83
2016-11-09T07:49:10.025Z,23.02
2016-11-09T07:50:10.220Z,23.02
2016-11-09T07:51:09.908Z,23.31
2016-11-09T07:52:09.849Z,23.4
2016-11-09T07:53:09.790Z,23.6
2016-11-09T07:54:09.721Z,23.02
2016-11-09T07:55:09.727Z,22.83
2016-11-09T07:56:09.804Z,22.73
2016-11-09T07:57:09.534Z,22.83
2016-11-09T07:58:09.826Z,22.83
2016-11-09T07:59:09.421Z,22.83
2016-11-09T08:00:09.411Z,23.6
2016-11-09T08:01:09.305Z,23.41
2016-11-09T08:02:09.229Z,23.31
2016-11-09T08:03:09.176Z,23.21
2016-11-09T08:04:09.119Z,23.21
2016-11-09T08:05:09.091Z,23.31
2016-11-09T08:06:08.976Z,23.21
2016-11-09T08:07:08.927Z,23.31
2016-11-09T08:08:08.871Z,23.4
2016-11-09T08:09:08.791Z,23.5
2016-11-09T08:10:08.930Z,23.11
2016-11-09T08:11:08.670Z,23.11
2016-11-09T08:12:08.603Z,23.31
2016-11-09T08:13:08.521Z,23.31
2016-11-09T08:14:08.473Z,23.4
2016-11-09T08:15:08.349Z,23.4
2016-11-09T08:16:08.279Z,23.4
2016-11-09T08:17:08.152Z,23.5
2016-11-09T08:18:08.098Z,23.21
2016-11-09T08:19:08.017Z,23.21
2016-11-09T08:20:08.091Z,23.31
2016-11-09T08:21:07.948Z,23.11
2016-11-09T08:22:07.854Z,23.31
2016-11-09T08:23:07.859Z,23.31
2016-11-09T08:24:07.843Z,23.5
2016-11-09T08:25:07.765Z,23.4
2016-11-09T08:26:08.059Z,23.5
2016-11-09T08:27:07.606Z,23.21
2016-11-09T08:28:07.596Z,23.5
2016-11-09T08:29:07.442Z,23.11
2016-11-09T08:30:07.327Z,23.11
2016-11-09T08:31:07.264Z,23.21
2016-11-09T08:32:07.199Z,23.21
2016-11-09T08:33:07.186Z,23.11
2016-11-09T08:34:07.140Z,23.11
2016-11-09T08:35:07.013Z,23.02
2016-11-09T08:36:06.958Z,23.02
2016-11-09T08:37:06.886Z,23.11
2016-11-09T08:38:06.823Z,23.11
2016-11-09T08:39:06.763Z,23.11
2016-11-09T08:40:06.707Z,23.31
2016-11-09T08:41:06.634Z,23.4
2016-11-09T08:42:06.573Z,23.5
2016-11-09T08:43:06.519Z,23.02
2016-11-09T08:44:06.451Z,23.02
2016-11-09T08:45:06.400Z,23.02
2016-11-09T08:46:06.334Z,23.21
2016-11-09T08:47:06.260Z,23.02
2016-11-09T08:48:06.197Z,23.11
2016-11-09T08:49:06.142Z,23.11
2016-11-09T08:50:06.091Z,23.21
2016-11-09T08:51:06.012Z,23.6
2016-11-09T08:52:05.947Z,23.6
2016-11-09T08:53:06.194Z,23.4
2016-11-09T08:54:05.825Z,23.6
2016-11-09T08:55:05.765Z,23.31
2016-11-09T08:56:05.713Z,23.21
2016-11-09T08:57:05.637Z,23.11
2016-11-09T08:58:05.575Z,23.02
2016-11-09T08:59:05.510Z,23.31
2016-11-09T09:00:05.466Z,23.31
2016-11-09T09:01:05.420Z,23.21
2016-11-09T09:02:05.324Z,22.73
2016-11-09T09:03:05.273Z,23.31
2016-11-09T09:04:05.501Z,23.31
2016-11-09T09:05:05.139Z,23.5
2016-11-09T09:06:05.560Z,23.6
2016-11-09T09:07:05.331Z,22.63
2016-11-09T09:08:05.076Z,23.31
2016-11-09T09:09:04.897Z,22.83
2016-11-09T09:10:04.836Z,22.73
2016-11-09T09:11:05.094Z,23.4
2016-11-09T09:12:04.731Z,23.31
2016-11-09T09:13:04.684Z,23.21
2016-11-09T09:14:04.600Z,23.31
2016-11-09T09:15:04.668Z,23.21
2016-11-09T09:16:04.474Z,22.63
2016-11-09T09:17:04.402Z,22.73
2016-11-09T09:18:04.329Z,22.83
2016-11-09T09:19:04.305Z,22.83
2016-11-09T09:20:04.728Z,23.31
2016-11-09T09:21:04.516Z,23.69
2016-11-09T09:22:04.106Z,23.5
2016-11-09T09:23:04.067Z,23.88
2016-11-09T09:24:03.998Z,24.18
2016-11-09T09:25:03.995Z,24.37
2016-11-09T09:26:03.974Z,23.98
2016-11-09T09:27:03.856Z,23.88
2016-11-09T09:28:03.762Z,23.69
2016-11-09T09:29:03.810Z,23.5
2016-11-09T09:30:03.658Z,23.4
2016-11-09T09:31:03.644Z,23.31
2016-11-09T09:32:03.606Z,22.92
2016-11-09T09:33:03.546Z,23.21
2016-11-09T09:34:03.384Z,23.11
2016-11-09T09:35:03.424Z,23.21
2016-11-09T09:36:03.239Z,23.4
2016-11-09T09:37:03.160Z,22.73
2016-11-09T09:38:03.135Z,22.73
2016-11-09T09:39:03.153Z,22.73
2016-11-09T09:40:02.986Z,23.21
2016-11-09T09:41:02.930Z,22.83
2016-11-09T09:42:02.871Z,23.31
2016-11-09T09:43:02.857Z,22.83
2016-11-09T09:44:02.731Z,23.4
2016-11-09T09:45:02.677Z,23.31
2016-11-09T09:46:02.658Z,23.31
2016-11-09T09:47:02.638Z,23.21
2016-11-09T09:48:02.548Z,23.21
2016-11-09T09:49:02.397Z,23.21
2016-11-09T09:50:02.328Z,23.21
2016-11-09T09:51:02.283Z,23.31
2016-11-09T09:52:02.202Z,22.83
2016-11-09T09:53:02.167Z,23.11
2016-11-09T09:54:02.083Z,23.21
2016-11-09T09:55:02.016Z,23.21
2016-11-09T09:56:01.950Z,23.21
2016-11-09T09:57:01.914Z,23.02
2016-11-09T09:58:01.826Z,23.31
2016-11-09T09:59:01.776Z,23.79
2016-11-09T10:00:01.718Z,23.98
2016-11-09T10:01:01.642Z,23.4
2016-11-09T10:02:01.587Z,23.6
2016-11-09T10:03:01.622Z,23.5
2016-11-09T10:04:01.452Z,23.6
2016-11-09T10:05:01.425Z,23.5
2016-11-09T10:06:01.336Z,23.5
2016-11-09T10:07:01.275Z,23.79
2016-11-09T10:08:01.204Z,23.69
2016-11-09T10:09:01.141Z,23.79
2016-11-09T10:10:01.627Z,23.69
2016-11-09T10:11:01.039Z,23.79
2016-11-09T10:12:01.334Z,23.79
2016-11-09T10:13:00.892Z,23.79
2016-11-09T10:14:00.837Z,23.6
2016-11-09T10:15:00.770Z,23.6
2016-11-09T10:16:00.709Z,23.31
2016-11-09T10:17:00.640Z,23.79
2016-11-09T10:18:00.586Z,23.79
2016-11-09T10:19:00.514Z,23.79
2016-11-09T10:20:00.448Z,23.79
2016-11-09T10:21:00.391Z,23.69
2016-11-09T10:22:00.333Z,23.69
2016-11-09T10:23:00.262Z,23.5
2016-11-09T10:24:00.506Z,23.5
2016-11-09T10:25:00.143Z,23.69
2016-11-09T10:26:00.095Z,23.88
2016-11-09T10:27:00.012Z,23.31
2016-11-09T10:27:59.989Z,23.4
2016-11-09T10:28:59.899Z,23.5
2016-11-09T10:29:59.828Z,23.79
2016-11-09T10:30:59.889Z,23.88
2016-11-09T10:31:59.700Z,23.31
2016-11-09T10:32:59.639Z,23.21
2016-11-09T10:33:59.577Z,23.5
2016-11-09T10:34:59.815Z,23.6
2016-11-09T10:35:59.452Z,23.5
2016-11-09T10:36:59.388Z,23.11
2016-11-09T10:37:59.338Z,23.11
2016-11-09T10:38:59.615Z,23.02
2016-11-09T10:39:59.225Z,23.02
2016-11-09T10:40:59.167Z,23.11
2016-11-09T10:41:59.085Z,23.11
2016-11-09T10:42:59.050Z,23.21
2016-11-09T10:43:58.998Z,23.31
2016-11-09T10:44:58.887Z,23.21
2016-11-09T10:45:58.872Z,23.21
2016-11-09T10:46:58.804Z,23.31
2016-11-09T10:47:58.719Z,23.4
2016-11-09T10:48:58.651Z,23.4
2016-11-09T10:49:58.600Z,22.63
2016-11-09T10:50:58.635Z,22.73
2016-11-09T10:51:58.476Z,22.73
2016-11-09T10:52:58.429Z,23.31
2016-11-09T10:53:58.333Z,22.81
2016-11-09T10:54:58.270Z,22.83
2016-11-09T10:55:58.527Z,22.91
2016-11-09T10:56:58.177Z,22.83
2016-11-09T10:57:58.138Z,22.81
2016-11-09T10:58:58.352Z,22.83
2016-11-09T10:59:57.983Z,22.91
2016-11-09T11:00:57.930Z,22.81
2016-11-09T11:01:57.827Z,22.72
2016-11-09T11:02:57.764Z,22.83
2016-11-09T11:03:57.706Z,23.02
2016-11-09T11:04:57.648Z,23
2016-11-09T11:05:57.575Z,22.81
2016-11-09T11:06:57.525Z,22.91
2016-11-09T11:07:57.448Z,23
2016-11-09T11:08:57.391Z,22.92
2016-11-09T11:09:57.332Z,22.91
2016-11-09T11:10:57.265Z,22.83
2016-11-09T11:11:57.243Z,22.73
2016-11-09T11:12:57.153Z,22.81
2016-11-09T11:13:57.115Z,22.91
2016-11-09T11:14:57.015Z,23.4
2016-11-09T11:15:56.968Z,22.63
2016-11-09T11:16:56.889Z,23.39
2016-11-09T11:17:56.840Z,22.62
2016-11-09T11:18:56.765Z,23.31
2016-11-09T11:19:56.701Z,23.21
2016-11-09T11:20:56.649Z,23.21
2016-11-09T11:21:56.599Z,23.21
2016-11-09T11:22:56.550Z,23.21
2016-11-09T11:23:56.454Z,22.92
2016-11-09T11:24:56.407Z,23.02
2016-11-09T11:25:56.328Z,23.02
2016-11-09T11:26:56.275Z,23.11
2016-11-09T11:27:56.213Z,23.02
2016-11-09T11:28:56.443Z,23.02
2016-11-09T11:29:56.080Z,23.02
2016-11-09T11:30:56.016Z,23.11
2016-11-09T11:31:55.953Z,23.02
2016-11-09T11:32:55.918Z,23.02
2016-11-09T11:33:55.834Z,23.21
2016-11-09T11:34:55.771Z,23.02
2016-11-09T11:35:55.706Z,23.11
2016-11-09T11:36:55.643Z,23.02
2016-11-09T11:37:55.640Z,23.11
2016-11-09T11:38:55.850Z,23.31
2016-11-09T11:40:33.848Z,23.11
2016-11-09T11:40:55.390Z,23.21
2016-11-09T11:41:55.638Z,23.21
2016-11-09T11:42:55.267Z,23.21
2016-11-09T11:43:55.207Z,23.11
2016-11-09T11:44:55.146Z,23.31
2016-11-09T11:45:55.080Z,23.11
2016-11-09T11:46:55.026Z,23.11
2016-11-09T11:47:54.966Z,23.21
2016-11-09T11:48:54.898Z,23.21
2016-11-09T11:49:54.831Z,23.11
2016-11-09T11:50:54.772Z,23.02
2016-11-09T11:51:54.701Z,23.11
2016-11-09T11:52:54.642Z,23.02
2016-11-09T11:53:54.576Z,23.31
2016-11-09T11:54:54.516Z,23.11
2016-11-09T11:55:54.464Z,23.11
2016-11-09T11:56:54.391Z,23.21
2016-11-09T11:57:54.374Z,23.11
2016-11-09T11:58:54.266Z,23.11
2016-11-09T11:59:54.205Z,23.11
2016-11-09T12:00:54.356Z,23.02
2016-11-09T12:01:54.106Z,23.02
2016-11-09T12:02:54.020Z,23.02
2016-11-09T12:03:53.959Z,23.11
2016-11-09T12:04:53.895Z,23.02
2016-11-09T12:05:53.852Z,23.02
2016-11-09T12:06:53.816Z,23.11
2016-11-09T12:07:53.705Z,23.21
2016-11-09T12:08:53.664Z,23.11
2016-11-09T12:09:53.587Z,23.11
2016-11-09T12:10:53.517Z,23.11
2016-11-09T12:11:53.483Z,23.11
2016-11-09T12:12:53.394Z,23.02
2016-11-09T12:13:53.332Z,23.11
2016-11-09T12:14:53.279Z,23.11
2016-11-09T12:15:53.359Z,23.02
2016-11-09T12:16:53.346Z,23.11
2016-11-09T12:17:53.083Z,23.02
2016-11-09T12:18:53.022Z,23.11
2016-11-09T12:19:53.280Z,23.02
2016-11-09T12:20:53.199Z,23.31
2016-11-09T12:21:52.837Z,23.11
2016-11-09T12:22:52.780Z,22.92
2016-11-09T12:23:52.709Z,23.11
2016-11-09T12:24:52.646Z,23.11
2016-11-09T12:25:52.588Z,22.92
2016-11-09T12:26:52.550Z,23.02
2016-11-09T12:27:52.458Z,23.02
2016-11-09T12:28:52.395Z,23.21
2016-11-09T12:29:52.338Z,23.02
2016-11-09T12:30:52.606Z,23.21
2016-11-09T12:31:52.212Z,23.21
2016-11-09T12:32:52.153Z,23.21
2016-11-09T12:33:52.094Z,23.31
2016-11-09T12:34:52.020Z,23.31
2016-11-09T12:35:51.959Z,23.02
2016-11-09T12:36:51.899Z,23.11
2016-11-09T12:37:51.836Z,22.92
2016-11-09T12:38:51.786Z,22.92
2016-11-09T12:39:51.711Z,22.92
2016-11-09T12:40:51.724Z,23.11
2016-11-09T12:41:51.585Z,22.92
2016-11-09T12:42:51.534Z,23.11
2016-11-09T12:43:51.779Z,23.02
2016-11-09T12:44:51.402Z,23.11
2016-11-09T12:45:51.337Z,23.31
2016-11-09T12:46:51.279Z,23.02
2016-11-09T12:47:51.212Z,23.31
2016-11-09T12:48:51.170Z,23.11
2016-11-09T12:49:51.180Z,22.92
2016-11-09T12:50:51.037Z,23.02
2016-11-09T12:51:50.998Z,23.21
2016-11-09T12:52:50.907Z,23.11
2016-11-09T12:53:51.148Z,23.11
2016-11-09T12:54:50.785Z,23.31
2016-11-09T12:55:50.717Z,22.92